createdAt,value
2023-01-26T00:01:00.961Z,22.45
2023-01-26T00:03:27.473Z,20.90
2023-01-26T00:05:53.856Z,21.23
2023-01-26T00:08:20.312Z,21.25
2023-01-26T00:10:50.354Z,22.65
2023-01-26T00:13:19.979Z,20.48
2023-01-26T00:15:46.644Z,20.50
2023-01-26T00:18:15.864Z,21.15
2023-01-26T00:20:44.787Z,21.33
2023-01-26T00:23:11.180Z,21.23
2023-01-26T00:25:39.865Z,19.98
2023-01-26T00:28:06.262Z,20.77
2023-01-26T00:30:32.624Z,22.95
2023-01-26T00:32:58.991Z,22.20
2023-01-26T00:35:25.420Z,21.50
2023-01-26T00:37:51.839Z,23.08
2023-01-26T00:40:21.368Z,22.90
2023-01-26T00:42:47.855Z,21.73
2023-01-26T00:45:14.299Z,22.85
2023-01-26T00:47:43.573Z,21.58
2023-01-26T00:50:10.984Z,24.65
2023-01-26T00:52:37.696Z,23.85
2023-01-26T00:55:04.354Z,23.77
2023-01-26T00:57:30.733Z,21.92
2023-01-26T00:59:57.112Z,22.65
2023-01-26T01:02:23.639Z,20.77
2023-01-26T01:04:50.029Z,21.75
2023-01-26T01:07:16.396Z,22.95
2023-01-26T01:09:42.736Z,22.85
2023-01-26T01:12:09.153Z,21.25
2023-01-26T01:14:35.529Z,22.35
2023-01-26T01:17:01.948Z,23.77
2023-01-26T01:19:28.510Z,22.60
2023-01-26T01:21:54.838Z,22.13
2023-01-26T01:24:21.208Z,21.83
2023-01-26T01:26:47.599Z,21.98
2023-01-26T01:29:14.565Z,21.52
2023-01-26T01:31:41.540Z,20.85
2023-01-26T01:34:07.951Z,21.65
2023-01-26T01:36:34.339Z,21.02
2023-01-26T01:39:01.282Z,21.73
2023-01-26T01:41:27.653Z,21.08
2023-01-26T01:44:12.809Z,21.80
2023-01-26T01:46:40.048Z,20.42
2023-01-26T01:49:10.736Z,20.95
2023-01-26T01:51:39.507Z,21.38
2023-01-26T01:54:08.673Z,21.33
2023-01-26T01:56:36.982Z,20.42
2023-01-26T01:59:04.573Z,22.05
2023-01-26T02:01:30.914Z,21.17
2023-01-26T02:04:00.313Z,21.45
2023-01-26T02:06:30.649Z,21.92
2023-01-26T02:08:58.045Z,21.30
2023-01-26T02:11:27.189Z,22.98
2023-01-26T02:13:54.228Z,21.40
2023-01-26T02:16:20.731Z,21.77
2023-01-26T02:18:47.474Z,23.15
2023-01-26T02:21:20.032Z,23.00
2023-01-26T02:24:04.908Z,22.95
2023-01-26T02:26:33.117Z,17.40
2023-01-26T02:29:00.415Z,22.45
2023-01-26T02:31:26.961Z,25.10
2023-01-26T02:33:53.433Z,25.60
2023-01-26T02:36:21.577Z,23.50
2023-01-26T02:38:55.747Z,23.92
2023-01-26T02:41:40.944Z,23.80
2023-01-26T02:44:09.050Z,26.13
2023-01-26T02:46:35.428Z,24.38
2023-01-26T02:49:28.243Z,24.27
2023-01-26T02:51:54.585Z,24.52
2023-01-26T02:54:39.380Z,24.00
2023-01-26T02:57:05.822Z,25.23
2023-01-26T02:59:32.164Z,24.10
2023-01-26T03:01:58.743Z,25.10
2023-01-26T03:04:25.275Z,25.13
2023-01-26T03:06:51.612Z,24.73
2023-01-26T03:09:17.988Z,25.63
2023-01-26T03:11:44.363Z,26.73
2023-01-26T03:14:11.525Z,25.83
2023-01-26T03:16:41.318Z,24.23
2023-01-26T03:19:09.261Z,25.08
2023-01-26T03:21:54.538Z,23.98
2023-01-26T03:24:39.422Z,25.08
2023-01-26T03:27:24.844Z,25.05
2023-01-26T03:29:51.541Z,26.17
2023-01-26T03:32:17.993Z,26.30
2023-01-26T03:34:44.571Z,26.05
2023-01-26T03:37:11.373Z,27.65
2023-01-26T03:39:56.256Z,26.58
2023-01-26T03:42:41.132Z,23.90
2023-01-26T03:45:26.415Z,25.83
2023-01-26T03:48:11.344Z,24.48
2023-01-26T03:50:56.416Z,20.02
2023-01-26T03:53:42.339Z,25.50
2023-01-26T03:56:23.218Z,26.85
2023-01-26T03:58:53.540Z,26.45
2023-01-26T04:01:21.135Z,27.80
2023-01-26T04:04:06.666Z,25.75
2023-01-26T04:06:52.173Z,27.15
2023-01-26T04:09:18.571Z,25.10
2023-01-26T04:11:45.081Z,28.00
2023-01-26T04:14:31.321Z,26.65
2023-01-26T04:17:22.157Z,25.35
2023-01-26T04:20:07.671Z,26.33
2023-01-26T04:22:45.182Z,28.83
2023-01-26T04:25:13.777Z,27.30
2023-01-26T04:27:40.958Z,26.63
2023-01-26T04:30:08.750Z,27.23
2023-01-26T04:32:35.411Z,28.65
2023-01-26T04:35:01.905Z,26.10
2023-01-26T04:37:28.261Z,26.27
2023-01-26T04:39:54.636Z,29.33
2023-01-26T04:42:21.093Z,27.10
2023-01-26T04:44:47.535Z,29.73
2023-01-26T04:47:13.922Z,29.13
2023-01-26T04:49:40.392Z,32.13
2023-01-26T04:52:06.780Z,29.27
2023-01-26T04:54:33.180Z,28.38
2023-01-26T04:56:59.556Z,26.88
2023-01-26T04:59:25.927Z,28.13
2023-01-26T05:01:52.313Z,27.33
2023-01-26T05:04:18.955Z,26.77
2023-01-26T05:06:45.477Z,27.90
2023-01-26T05:09:11.894Z,27.70
2023-01-26T05:11:38.303Z,27.88
2023-01-26T05:14:04.647Z,29.00
2023-01-26T05:16:32.037Z,27.17
2023-01-26T05:18:58.451Z,26.80
2023-01-26T05:21:27.286Z,25.90
2023-01-26T05:23:54.247Z,25.20
2023-01-26T05:26:20.818Z,27.15
2023-01-26T05:28:47.238Z,25.70
2023-01-26T05:31:13.579Z,27.45
2023-01-26T05:33:40.012Z,27.55
2023-01-26T05:36:06.907Z,25.23
2023-01-26T05:38:33.729Z,26.83
2023-01-26T05:41:00.153Z,27.88
2023-01-26T05:43:26.504Z,26.10
2023-01-26T05:45:52.931Z,25.83
2023-01-26T05:48:19.376Z,26.80
2023-01-26T05:50:45.816Z,27.45
2023-01-26T05:53:12.277Z,26.08
2023-01-26T05:55:39.014Z,27.20
2023-01-26T05:58:05.338Z,27.17
2023-01-26T06:00:31.811Z,24.70
2023-01-26T06:02:58.164Z,26.23
2023-01-26T06:05:24.526Z,26.27
2023-01-26T06:07:50.918Z,25.90
2023-01-26T06:10:17.360Z,26.23
2023-01-26T06:12:43.741Z,24.65
2023-01-26T06:15:12.381Z,26.40
2023-01-26T06:17:38.868Z,25.45
2023-01-26T06:20:06.093Z,26.85
2023-01-26T06:22:32.628Z,27.60
2023-01-26T06:24:58.993Z,26.17
2023-01-26T06:27:25.464Z,25.40
2023-01-26T06:29:51.794Z,27.15
2023-01-26T06:32:18.297Z,27.05
2023-01-26T06:34:44.686Z,26.52
2023-01-26T06:37:11.067Z,26.50
2023-01-26T06:39:37.581Z,26.85
2023-01-26T06:42:04.259Z,25.80
2023-01-26T06:44:32.441Z,26.90
2023-01-26T06:46:58.860Z,26.45
2023-01-26T06:49:25.236Z,26.00
2023-01-26T06:51:57.861Z,26.67
2023-01-26T06:54:24.475Z,25.45
2023-01-26T06:56:53.363Z,26.58
2023-01-26T06:59:26.993Z,25.27
2023-01-26T07:01:58.868Z,27.00
2023-01-26T07:04:28.407Z,26.42
2023-01-26T07:06:54.757Z,26.85
2023-01-26T07:09:21.084Z,27.98
2023-01-26T07:11:47.523Z,26.25
2023-01-26T07:14:13.863Z,26.77
2023-01-26T07:16:40.215Z,27.67
2023-01-26T07:19:06.802Z,26.50
2023-01-26T07:21:33.153Z,26.35
2023-01-26T07:23:59.609Z,26.98
2023-01-26T07:26:26.027Z,26.90
2023-01-26T07:28:52.456Z,26.40
2023-01-26T07:31:19.153Z,25.70
2023-01-26T07:33:45.624Z,25.63
2023-01-26T07:36:12.109Z,24.35
2023-01-26T07:38:38.629Z,23.77
2023-01-26T07:41:08.811Z,24.35
2023-01-26T07:43:36.296Z,23.75
2023-01-26T07:46:02.976Z,23.45
2023-01-26T07:48:32.150Z,23.15
2023-01-26T07:50:59.900Z,22.27
2023-01-26T07:53:29.218Z,22.33
2023-01-26T07:56:09.113Z,22.80
2023-01-26T07:58:35.733Z,22.13
2023-01-26T08:01:06.176Z,22.27
2023-01-26T08:03:32.741Z,22.75
2023-01-26T08:05:59.124Z,21.35
2023-01-26T08:08:26.168Z,20.42
2023-01-26T08:10:55.433Z,20.92
2023-01-26T08:13:34.462Z,19.80
2023-01-26T08:16:02.827Z,20.05
2023-01-26T08:18:29.365Z,20.92
2023-01-26T08:20:55.813Z,20.45
2023-01-26T08:23:22.145Z,21.17
2023-01-26T08:25:48.636Z,21.33
2023-01-26T08:28:15.097Z,22.52
2023-01-26T08:30:41.868Z,19.55
2023-01-26T08:33:08.361Z,20.73
2023-01-26T08:35:34.710Z,20.90
2023-01-26T08:38:01.135Z,21.45
2023-01-26T08:40:27.721Z,20.58
2023-01-26T08:42:55.841Z,22.50
2023-01-26T08:45:22.240Z,18.88
2023-01-26T08:47:49.211Z,18.60
2023-01-26T08:50:15.567Z,20.88
2023-01-26T08:52:41.943Z,18.55
2023-01-26T08:55:08.475Z,20.15
2023-01-26T08:57:34.882Z,18.42
2023-01-26T09:00:01.248Z,20.05
2023-01-26T09:02:27.813Z,19.73
2023-01-26T09:04:54.295Z,20.65
2023-01-26T09:07:20.632Z,20.67
2023-01-26T09:09:47.030Z,20.45
2023-01-26T09:12:13.387Z,19.35
2023-01-26T09:14:41.120Z,19.50
2023-01-26T09:17:07.879Z,19.30
2023-01-26T09:19:34.336Z,20.02
2023-01-26T09:22:00.743Z,19.45
2023-01-26T09:24:27.322Z,18.13
2023-01-26T09:26:53.753Z,19.42
2023-01-26T09:29:20.413Z,18.27
2023-01-26T09:31:47.012Z,19.35
2023-01-26T09:34:13.425Z,19.33
2023-01-26T09:36:41.470Z,19.77
2023-01-26T09:39:08.413Z,19.58
2023-01-26T09:41:43.025Z,18.83
2023-01-26T09:44:10.283Z,19.92
2023-01-26T09:46:42.901Z,19.67
2023-01-26T09:49:17.522Z,19.88
2023-01-26T09:52:00.436Z,21.15
2023-01-26T09:54:30.246Z,22.05
2023-01-26T09:56:56.593Z,21.60
2023-01-26T09:59:44.463Z,21.20
2023-01-26T10:02:29.440Z,19.42
2023-01-26T10:04:57.531Z,15.43
2023-01-26T10:07:24.095Z,18.15
2023-01-26T10:09:51.263Z,18.45
2023-01-26T10:12:35.950Z,17.67
2023-01-26T10:15:22.670Z,14.50
2023-01-26T10:17:50.311Z,20.17
2023-01-26T10:20:32.240Z,18.15
2023-01-26T10:23:07.651Z,17.75
2023-01-26T10:25:35.283Z,16.95
2023-01-26T10:28:21.920Z,18.42
2023-01-26T10:30:48.996Z,18.98
2023-01-26T10:33:18.110Z,18.42
2023-01-26T10:35:44.721Z,18.42
2023-01-26T10:38:47.013Z,17.65
2023-01-26T10:41:16.971Z,17.05
2023-01-26T10:43:50.163Z,18.00
2023-01-26T10:46:30.308Z,17.77
2023-01-26T10:48:58.256Z,16.88
2023-01-26T10:51:26.453Z,17.75
2023-01-26T10:54:12.842Z,17.95
2023-01-26T10:56:54.759Z,16.98
2023-01-26T10:59:27.227Z,16.63
2023-01-26T11:01:53.708Z,16.45
2023-01-26T11:04:20.586Z,16.20
2023-01-26T11:06:47.262Z,15.63
2023-01-26T11:09:13.659Z,15.35
2023-01-26T11:11:40.371Z,16.85
2023-01-26T11:14:16.978Z,17.10
2023-01-26T11:16:50.213Z,14.82
2023-01-26T11:19:21.000Z,13.52
2023-01-26T11:21:50.655Z,14.60
2023-01-26T11:24:35.892Z,15.32
2023-01-26T11:27:41.378Z,13.25
2023-01-26T11:30:16.477Z,12.90
2023-01-26T11:32:50.909Z,13.20
2023-01-26T11:35:29.002Z,13.13
2023-01-26T11:37:55.477Z,13.88
2023-01-26T11:40:25.145Z,13.05
2023-01-26T11:43:17.346Z,13.57
2023-01-26T11:45:46.512Z,13.75
2023-01-26T11:48:22.368Z,13.45
2023-01-26T11:50:56.541Z,13.82
2023-01-26T11:53:32.286Z,13.55
2023-01-26T11:56:05.550Z,13.07
2023-01-26T11:58:35.205Z,12.40
2023-01-26T12:01:03.235Z,12.00
2023-01-26T12:03:46.949Z,12.63
2023-01-26T12:06:16.765Z,14.88
2023-01-26T12:08:45.196Z,12.48
2023-01-26T12:11:23.684Z,13.15
2023-01-26T12:13:56.179Z,11.98
2023-01-26T12:16:41.468Z,14.18
2023-01-26T12:19:26.546Z,12.57
2023-01-26T12:21:54.708Z,12.60
2023-01-26T12:25:04.984Z,12.65
2023-01-26T12:27:25.814Z,12.43
2023-01-26T12:29:52.120Z,13.05
2023-01-26T12:32:18.630Z,12.65
2023-01-26T12:34:45.064Z,12.90
2023-01-26T12:37:20.403Z,12.77
2023-01-26T12:42:19.064Z,12.98
2023-01-26T12:44:48.463Z,11.35
2023-01-26T12:47:17.901Z,12.95
2023-01-26T12:49:50.372Z,12.80
2023-01-26T12:52:16.892Z,13.73
2023-01-26T12:54:48.986Z,14.02
2023-01-26T12:57:20.177Z,13.80
2023-01-26T12:59:49.123Z,14.25
2023-01-26T13:02:15.779Z,13.57
2023-01-26T13:04:43.593Z,12.75
2023-01-26T13:07:28.881Z,12.93
2023-01-26T13:10:08.356Z,11.75
2023-01-26T13:12:46.761Z,12.45
2023-01-26T13:15:17.557Z,12.38
2023-01-26T13:18:04.284Z,11.85
2023-01-26T13:20:39.788Z,12.55
2023-01-26T13:23:26.152Z,12.70
2023-01-26T13:26:22.117Z,10.10
2023-01-26T13:28:48.969Z,10.90
2023-01-26T13:31:29.396Z,9.32
2023-01-26T13:33:57.284Z,10.20
2023-01-26T13:36:23.978Z,10.70
2023-01-26T13:38:59.320Z,11.63
2023-01-26T13:43:51.911Z,9.40
2023-01-26T13:46:22.407Z,9.27
2023-01-26T13:48:51.606Z,11.15
2023-01-26T13:51:23.203Z,9.13
2023-01-26T13:54:10.803Z,10.88
2023-01-26T13:56:39.024Z,9.38
2023-01-26T13:59:06.967Z,8.52
2023-01-26T14:01:33.834Z,9.77
2023-01-26T14:04:06.823Z,10.20
2023-01-26T14:06:36.317Z,12.40
2023-01-26T14:09:03.130Z,12.60
2023-01-26T14:11:30.999Z,10.30
2023-01-26T14:13:58.738Z,10.85
2023-01-26T14:16:28.765Z,10.85
2023-01-26T14:19:10.413Z,11.82
2023-01-26T14:21:46.057Z,10.80
2023-01-26T14:24:12.576Z,10.13
2023-01-26T14:26:40.572Z,10.52
2023-01-26T14:29:11.818Z,11.02
2023-01-26T14:31:38.199Z,9.60
2023-01-26T14:34:08.629Z,10.70
2023-01-26T14:36:39.194Z,9.68
2023-01-26T14:39:19.040Z,10.90
2023-01-26T14:41:45.806Z,9.98
2023-01-26T14:44:12.897Z,9.27
2023-01-26T14:46:52.756Z,9.80
2023-01-26T14:49:22.742Z,9.00
2023-01-26T14:51:51.849Z,11.98
2023-01-26T14:54:20.887Z,10.30
2023-01-26T14:56:48.715Z,11.18
2023-01-26T14:59:20.287Z,10.82
2023-01-26T15:01:47.365Z,12.27
2023-01-26T15:04:26.145Z,10.48
2023-01-26T15:06:52.551Z,9.82
2023-01-26T15:09:25.196Z,10.73
2023-01-26T15:12:17.737Z,11.02
2023-01-26T15:14:56.560Z,11.13
2023-01-26T15:17:38.040Z,10.73
2023-01-26T15:20:24.711Z,11.35
2023-01-26T15:22:52.235Z,11.13
2023-01-26T15:25:20.946Z,10.13
2023-01-26T15:27:52.088Z,11.10
2023-01-26T15:30:20.265Z,10.77
2023-01-26T15:32:46.595Z,10.48
2023-01-26T15:35:19.092Z,11.90
2023-01-26T15:37:45.554Z,12.18
2023-01-26T15:40:15.089Z,10.55
2023-01-26T15:42:41.753Z,10.65
2023-01-26T15:45:26.283Z,11.07
2023-01-26T15:47:52.738Z,10.63
2023-01-26T15:50:27.836Z,9.65
2023-01-26T15:52:54.786Z,10.60
2023-01-26T15:55:24.351Z,9.13
2023-01-26T15:57:51.591Z,9.65
2023-01-26T16:00:18.333Z,10.50
2023-01-26T16:02:44.804Z,10.05
2023-01-26T16:05:18.833Z,9.32
2023-01-26T16:07:45.896Z,9.88
2023-01-26T16:10:12.386Z,10.05
2023-01-26T16:12:38.798Z,10.02
2023-01-26T16:15:31.534Z,11.40
2023-01-26T16:17:58.069Z,10.10
2023-01-26T16:20:24.423Z,10.18
2023-01-26T16:22:51.080Z,9.73
2023-01-26T16:25:27.652Z,9.38
2023-01-26T16:27:54.607Z,9.75
2023-01-26T16:30:21.458Z,13.15
2023-01-26T16:32:48.239Z,10.93
2023-01-26T16:35:16.141Z,10.40
2023-01-26T16:37:42.866Z,11.38
2023-01-26T16:40:11.210Z,11.23
2023-01-26T16:42:40.390Z,10.65
2023-01-26T16:45:07.493Z,10.77
2023-01-26T16:47:33.956Z,11.52
2023-01-26T16:50:00.454Z,11.18
2023-01-26T16:52:26.928Z,10.45
2023-01-26T16:54:54.314Z,11.10
2023-01-26T16:57:20.843Z,10.98
2023-01-26T16:59:47.366Z,11.40
2023-01-26T17:02:23.049Z,12.38
2023-01-26T17:04:49.657Z,11.30
2023-01-26T17:07:16.044Z,10.98
2023-01-26T17:09:42.588Z,11.05
2023-01-26T17:12:10.399Z,10.18
2023-01-26T17:14:36.989Z,10.57
2023-01-26T17:17:03.687Z,11.63
2023-01-26T17:19:30.067Z,11.07
2023-01-26T17:21:57.799Z,11.25
2023-01-26T17:24:24.349Z,10.60
2023-01-26T17:26:50.785Z,10.13
2023-01-26T17:29:17.119Z,9.45
2023-01-26T17:31:43.705Z,11.10
2023-01-26T17:34:10.032Z,11.82
2023-01-26T17:36:36.360Z,10.50
2023-01-26T17:39:02.916Z,12.15
2023-01-26T17:41:29.286Z,11.93
2023-01-26T17:43:55.663Z,12.02
2023-01-26T17:46:22.151Z,12.00
2023-01-26T17:48:49.213Z,12.23
2023-01-26T17:51:17.106Z,12.18
2023-01-26T17:53:44.591Z,13.25
2023-01-26T17:56:12.445Z,13.77
2023-01-26T17:58:39.088Z,13.65
2023-01-26T18:01:06.529Z,13.32
2023-01-26T18:03:33.367Z,12.77
2023-01-26T18:05:59.759Z,13.95
2023-01-26T18:08:26.803Z,14.13
2023-01-26T18:11:02.824Z,15.25
2023-01-26T18:13:30.093Z,16.05
2023-01-26T18:15:56.512Z,16.00
2023-01-26T18:18:23.678Z,16.10
2023-01-26T18:20:50.155Z,17.20
2023-01-26T18:23:16.961Z,17.75
2023-01-26T18:25:44.434Z,18.23
2023-01-26T18:28:11.280Z,18.95
2023-01-26T18:30:38.142Z,20.88
2023-01-26T18:33:04.705Z,20.88
2023-01-26T18:35:31.522Z,18.00
2023-01-26T18:37:58.192Z,19.25
2023-01-26T18:40:25.028Z,17.75
2023-01-26T18:42:54.888Z,17.90
2023-01-26T18:45:21.349Z,18.58
2023-01-26T18:47:48.500Z,17.67
2023-01-26T18:50:15.179Z,16.85
2023-01-26T18:52:41.967Z,16.95
2023-01-26T18:55:08.880Z,17.92
2023-01-26T18:57:35.556Z,17.35
2023-01-26T19:00:02.492Z,19.55
2023-01-26T19:02:33.806Z,19.45
2023-01-26T19:05:00.408Z,21.23
2023-01-26T19:07:26.820Z,20.77
2023-01-26T19:09:53.235Z,20.10
2023-01-26T19:12:19.642Z,21.10
2023-01-26T19:14:45.979Z,18.35
2023-01-26T19:17:12.581Z,17.42
2023-01-26T19:19:41.028Z,18.05
2023-01-26T19:22:07.668Z,15.95
2023-01-26T19:24:34.121Z,17.15
2023-01-26T19:27:00.574Z,17.75
2023-01-26T19:29:27.001Z,16.40
2023-01-26T19:31:53.457Z,17.70
2023-01-26T19:34:19.847Z,17.75
2023-01-26T19:36:46.859Z,15.43
2023-01-26T19:39:13.860Z,17.70
2023-01-26T19:41:40.632Z,16.80
2023-01-26T19:44:07.280Z,18.58
2023-01-26T19:46:33.708Z,17.88
2023-01-26T19:49:00.170Z,18.00
2023-01-26T19:51:27.122Z,17.45
2023-01-26T19:53:55.233Z,17.65
2023-01-26T19:56:22.705Z,16.92
2023-01-26T19:58:50.818Z,17.50
2023-01-26T20:01:17.458Z,14.88
2023-01-26T20:03:43.875Z,17.10
2023-01-26T20:06:14.943Z,16.77
2023-01-26T20:08:41.542Z,16.35
2023-01-26T20:11:08.828Z,14.05
2023-01-26T20:13:35.662Z,13.15
2023-01-26T20:16:02.842Z,14.15
2023-01-26T20:18:29.179Z,13.10
2023-01-26T20:20:57.395Z,12.30
2023-01-26T20:23:25.402Z,13.63
2023-01-26T20:25:51.760Z,14.05
2023-01-26T20:28:18.673Z,14.48
2023-01-26T20:30:45.154Z,14.60
2023-01-26T20:33:11.625Z,14.43
2023-01-26T20:35:45.551Z,14.50
2023-01-26T20:38:11.999Z,15.10
2023-01-26T20:40:39.211Z,14.43
2023-01-26T20:43:05.565Z,15.50
2023-01-26T20:45:32.090Z,13.35
2023-01-26T20:48:01.612Z,14.15
2023-01-26T20:50:27.960Z,13.80
2023-01-26T20:52:54.871Z,14.07
2023-01-26T20:55:21.301Z,12.75
2023-01-26T20:57:47.716Z,12.88
2023-01-26T21:00:14.580Z,13.70
2023-01-26T21:02:41.278Z,13.40
2023-01-26T21:05:08.507Z,13.60
2023-01-26T21:07:34.918Z,12.63
2023-01-26T21:10:01.266Z,13.63
2023-01-26T21:12:28.055Z,12.55
2023-01-26T21:14:55.956Z,12.65
2023-01-26T21:17:22.964Z,12.43
2023-01-26T21:19:50.034Z,12.63
2023-01-26T21:22:16.824Z,12.18
2023-01-26T21:24:43.259Z,12.75
2023-01-26T21:27:09.591Z,11.93
2023-01-26T21:29:36.047Z,13.65
2023-01-26T21:32:02.436Z,13.00
2023-01-26T21:34:28.777Z,12.88
2023-01-26T21:36:55.219Z,12.55
2023-01-26T21:39:22.271Z,12.43
2023-01-26T21:41:57.624Z,13.73
2023-01-26T21:44:26.014Z,13.38
2023-01-26T21:46:53.991Z,14.23
2023-01-26T21:49:20.553Z,14.63
2023-01-26T21:52:05.449Z,15.43
2023-01-26T21:54:32.374Z,13.82
2023-01-26T21:56:59.330Z,14.93
2023-01-26T21:59:25.827Z,14.85
2023-01-26T22:01:55.981Z,15.85
2023-01-26T22:04:23.655Z,16.80
2023-01-26T22:06:50.635Z,16.98
2023-01-26T22:09:17.501Z,15.70
2023-01-26T22:11:44.292Z,17.08
2023-01-26T22:14:15.033Z,18.38
2023-01-26T22:16:41.562Z,17.55
2023-01-26T22:19:08.950Z,18.60
2023-01-26T22:21:35.405Z,16.50
2023-01-26T22:24:02.081Z,17.80
2023-01-26T22:26:28.775Z,17.50
2023-01-26T22:28:56.328Z,15.57
2023-01-26T22:31:26.995Z,14.73
2023-01-26T22:33:54.140Z,15.40
2023-01-26T22:36:21.385Z,14.82
2023-01-26T22:38:48.151Z,14.82
2023-01-26T22:41:22.379Z,14.40
2023-01-26T22:43:54.487Z,15.30
2023-01-26T22:46:22.340Z,14.13
2023-01-26T22:48:49.448Z,12.98
2023-01-26T22:51:20.504Z,13.27
2023-01-26T22:53:48.073Z,12.45
2023-01-26T22:56:14.508Z,15.05
2023-01-26T22:58:57.096Z,16.23
2023-01-26T23:01:24.974Z,14.60
2023-01-26T23:03:52.263Z,14.25
2023-01-26T23:06:19.104Z,15.25
2023-01-26T23:08:45.479Z,15.05
2023-01-26T23:11:13.373Z,15.43
2023-01-26T23:13:42.297Z,15.05
2023-01-26T23:16:08.962Z,15.23
2023-01-26T23:18:35.825Z,14.45
2023-01-26T23:21:02.303Z,15.30
2023-01-26T23:23:29.215Z,14.48
2023-01-26T23:25:56.103Z,14.82
2023-01-26T23:28:23.676Z,14.93
2023-01-26T23:30:50.945Z,15.07
2023-01-26T23:33:18.069Z,14.35
2023-01-26T23:35:44.808Z,15.25
2023-01-26T23:38:11.321Z,13.85
2023-01-26T23:40:38.366Z,15.05
2023-01-26T23:43:16.130Z,14.35
2023-01-26T23:45:44.405Z,13.98
2023-01-26T23:48:13.726Z,13.27
2023-01-26T23:50:40.491Z,14.27
2023-01-26T23:53:06.958Z,14.82
2023-01-26T23:55:33.582Z,15.90
2023-01-26T23:57:59.908Z,16.00
